Time;durP1;ratioP1;P1;durP2;ratioP2;P2;SDS_P1;SDS_P2;PMS_P1;PMS_P2;Temp;Humidity;BMP_temperature;BMP_pressure;BME280_temperature;BME280_humidity;BME280_pressure;Samples;Min_cycle;Max_cycle;Signal;HPM_P1;HPM_P2
2022/07/03 00:00:08;;;;;;;4.82;2.17;;;;;;;18.78;82.18;68856.78;5067012;28;20037;-86
2022/07/03 00:02:34;;;;;;;2.97;2.05;;;;;;;18.67;82.90;68852.88;5084470;28;20048;-88
2022/07/03 00:04:59;;;;;;;3.65;2.28;;;;;;;18.57;82.89;68838.75;5077979;28;20045;-85
2022/07/03 00:07:24;;;;;;;3.92;2.63;;;;;;;;;;5081600;28;20112;-85
2022/07/03 00:09:50;;;;;;;4.60;2.25;;;;;;;18.68;82.19;68845.91;5080569;28;20737;-87
2022/07/03 00:12:15;;;;;;;4.55;2.15;;;;;;;18.75;81.71;68858.75;5079496;28;20041;-86
2022/07/03 00:14:41;;;;;;;3.95;2.10;;;;;;;;;;5081111;28;20045;-85
2022/07/03 00:17:06;;;;;;;2.45;1.80;;;;;;;;;;5080738;28;20044;-87
2022/07/03 00:19:31;;;;;;;4.85;1.98;;;;;;;18.85;82.19;68870.19;5077662;28;20048;-86
2022/07/03 00:21:57;;;;;;;2.97;1.92;;;;;;;;;;5062356;28;20821;-85
2022/07/03 00:24:32;;;;;;;4.63;2.30;;;;;;;;;;5098323;28;20036;-88
2022/07/03 00:26:59;;;;;;;5.88;2.50;;;;;;;18.71;82.52;68848.78;5097415;28;20929;-86
2022/07/03 00:29:25;;;;;;;6.13;2.88;;;;;;;;;;5073460;28;20036;-85
2022/07/03 00:31:51;;;;;;;5.15;3.00;;;;;;;18.65;82.90;68841.91;5069397;28;20053;-86
2022/07/03 00:34:17;;;;;;;4.40;2.90;;;;;;;18.71;82.62;68857.44;5065255;28;20068;-86
2022/07/03 00:36:45;;;;;;;5.13;2.60;;;;;;;18.85;81.66;68870.19;5076701;28;20044;-87
2022/07/03 00:39:10;;;;;;;3.78;2.83;;;;;;;;;;5078248;28;20032;-85
2022/07/03 00:41:36;;;;;;;4.53;2.92;;;;;;;18.71;82.63;68854.72;5062558;28;20052;-86
2022/07/03 00:44:03;;;;;;;4.15;2.70;;;;;;;18.69;82.78;68847.03;5076079;28;20040;-87
2022/07/03 00:46:29;;;;;;;5.55;2.20;;;;;;;18.65;83.22;68839.78;5080422;28;20040;-85
2022/07/03 00:48:58;;;;;;;4.38;2.70;;;;;;;18.55;83.89;68830.50;5081125;28;20045;-85
2022/07/03 00:51:25;;;;;;;5.47;2.90;;;;;;;18.42;84.58;68821.63;5095786;28;20128;-84
2022/07/03 00:53:52;;;;;;;5.70;3.15;;;;;;;;;;5078839;28;20451;-84
2022/07/03 00:56:23;;;;;;;3.83;2.85;;;;;;;18.35;85.38;68808.78;5075383;28;20059;-86
2022/07/03 00:58:52;;;;;;;4.85;2.80;;;;;;;18.36;86.15;68815.34;5077058;28;20386;-88
2022/07/03 01:01:18;;;;;;;4.60;2.75;;;;;;;18.36;86.21;68809.38;5076780;28;20512;-86
2022/07/03 01:03:45;;;;;;;5.55;2.70;;;;;;;18.25;85.67;68803.34;5088791;28;20093;-88
2022/07/03 01:06:13;;;;;;;5.30;2.92;;;;;;;;;;5064472;28;20036;-87
2022/07/03 01:09:05;;;;;;;5.00;2.63;;;;;;;;;;5087762;28;20048;-88
2022/07/03 01:11:30;;;;;;;4.40;2.53;;;;;;;;;;5028663;28;20041;-87
2022/07/03 01:14:17;;;;;;;4.43;2.80;;;;;;;18.04;88.03;68779.94;5059175;28;20075;-84
2022/07/03 01:16:57;;;;;;;3.65;2.50;;;;;;;;;;5065985;28;20279;-88
2022/07/03 01:19:34;;;;;;;3.53;2.75;;;;;;;;;;5074197;28;20056;-86
2022/07/03 01:22:02;;;;;;;7.55;3.13;;;;;;;;;;5068587;28;20036;-87
2022/07/03 01:24:43;;;;;;;3.70;2.30;;;;;;;18.21;86.14;68798.78;5069802;28;20071;-84
2022/07/03 01:27:10;;;;;;;3.25;2.30;;;;;;;;;;5072657;28;20045;-87
2022/07/03 01:29:47;;;;;;;3.80;2.60;;;;;;;;;;5065878;28;20056;-86
2022/07/03 01:32:14;;;;;;;3.53;2.72;;;;;;;;;;5076530;28;20052;-84
2022/07/03 01:34:44;;;;;;;3.60;2.78;;;;;;;18.25;84.48;68803.34;5077903;28;20041;-86
2022/07/03 01:37:13;;;;;;;5.40;2.95;;;;;;;18.22;85.54;68793.97;5076095;28;20040;-87
2022/07/03 01:39:43;;;;;;;3.30;2.60;;;;;;;18.25;85.13;68803.34;5072180;28;20044;-86
2022/07/03 01:42:08;;;;;;;4.10;2.80;;;;;;;;;;5073306;28;20124;-86
2022/07/03 01:44:35;;;;;;;4.20;2.70;;;;;;;;;;5063791;28;20053;-85
2022/07/03 01:47:01;;;;;;;3.05;2.50;;;;;;;;;;5072411;28;20040;-87
2022/07/03 01:49:27;;;;;;;4.70;2.90;;;;;;;17.93;86.63;68766.81;5093290;28;20033;-86
2022/07/03 01:51:54;;;;;;;5.55;2.90;;;;;;;17.87;87.23;68760.53;5073795;28;20052;-85
2022/07/03 01:54:23;;;;;;;4.25;2.97;;;;;;;;;;5070405;28;20044;-86
2022/07/03 01:56:48;;;;;;;6.07;3.88;;;;;;;;;;5094556;28;20055;-85
2022/07/03 01:59:14;;;;;;;6.10;3.75;;;;;;;17.71;88.21;68737.44;5093547;28;20037;-86
2022/07/03 02:01:51;;;;;;;4.70;3.78;;;;;;;;;;5074813;28;20032;-86
2022/07/03 02:04:24;;;;;;;4.55;3.20;;;;;;;;;;5049797;28;20080;-86
2022/07/03 02:07:11;;;;;;;6.13;3.17;;;;;;;17.62;88.88;68735.25;5068249;28;20041;-85
2022/07/03 02:09:57;;;;;;;5.75;3.42;;;;;;;17.58;89.72;68728.00;5085156;28;20055;-86
2022/07/03 02:12:32;;;;;;;5.30;3.58;;;;;;;17.58;89.50;68728.56;5071888;28;20024;-87
2022/07/03 02:15:05;;;;;;;5.35;3.65;;;;;;;17.48;89.69;68711.19;5097291;28;20031;-87
2022/07/03 02:17:42;;;;;;;5.40;3.78;;;;;;;17.35;91.02;68702.88;5070612;28;20088;-88
2022/07/03 02:20:08;;;;;;;4.28;3.63;;;;;;;;;;5061688;28;20041;-86
2022/07/03 02:22:37;;;;;;;4.63;3.35;;;;;;;17.36;91.40;68698.63;5073929;28;20693;-85
2022/07/03 02:25:04;;;;;;;4.18;3.50;;;;;;;17.36;91.03;68706.72;5068223;28;20598;-86
2022/07/03 02:27:38;;;;;;;7.57;3.30;;;;;;;17.40;90.05;68707.44;5068153;28;20064;-86
2022/07/03 02:30:06;;;;;;;4.80;3.45;;;;;;;17.32;91.00;68701.56;5065308;28;20494;-86
2022/07/03 02:32:52;;;;;;;5.80;3.70;;;;;;;17.17;91.96;68681.78;5057817;28;20068;-85
2022/07/03 02:35:29;;;;;;;3.92;3.05;;;;;;;17.23;92.52;68691.88;5063683;28;20049;-85
2022/07/03 02:38:01;;;;;;;4.20;3.20;;;;;;;17.19;91.49;68686.75;5057237;28;20048;-87
2022/07/03 02:40:32;;;;;;;3.40;2.80;;;;;;;17.36;90.02;68703.47;5089819;23;20045;-83
2022/07/03 02:43:14;;;;;;;5.53;3.10;;;;;;;17.29;89.51;68696.03;5057933;28;20037;-82
2022/07/03 02:45:55;;;;;;;6.60;3.40;;;;;;;17.16;90.30;68681.22;5031902;28;20123;-82
2022/07/03 02:48:35;;;;;;;4.45;3.17;;;;;;;17.09;90.13;68673.81;5015842;28;20045;-83
2022/07/03 02:51:19;;;;;;;5.40;3.10;;;;;;;16.93;91.31;68650.16;5058638;28;20075;-83
2022/07/03 02:54:05;;;;;;;4.32;3.22;;;;;;;16.86;92.46;68650.81;5049394;28;20527;-84
2022/07/03 02:56:33;;;;;;;5.68;3.53;;;;;;;;;;5062126;28;20071;-81
2022/07/03 02:59:17;;;;;;;4.97;3.20;;;;;;;;;;5063628;28;20059;-82
2022/07/03 03:02:13;;;;;;;4.47;3.40;;;;;;;16.61;92.66;68622.28;5062737;28;20028;-82
2022/07/03 03:04:41;;;;;;;5.38;4.18;;;;;;;;;;5027716;28;20189;-84
2022/07/03 03:07:16;;;;;;;5.00;3.53;;;;;;;;;;5073747;28;20548;-83
2022/07/03 03:09:43;;;;;;;4.93;3.72;;;;;;;;;;5067094;28;20078;-84
2022/07/03 03:12:09;;;;;;;6.13;3.63;;;;;;;16.55;93.26;68612.75;5068233;28;20067;-81
2022/07/03 03:14:40;;;;;;;5.45;4.10;;;;;;;;;;5065457;28;20079;-82
2022/07/03 03:17:06;;;;;;;4.60;4.20;;;;;;;16.46;93.18;68606.31;5070147;28;20052;-82
2022/07/03 03:19:39;;;;;;;5.93;3.90;;;;;;;16.47;94.00;68598.84;5072354;28;20119;-81
2022/07/03 03:22:07;;;;;;;5.40;3.78;;;;;;;;;;5072175;28;20090;-84
2022/07/03 03:24:33;;;;;;;4.47;3.78;;;;;;;;;;5067526;28;20089;-81
2022/07/03 03:26:59;;;;;;;6.13;3.88;;;;;;;16.57;92.47;68615.63;5063547;28;20443;-81
2022/07/03 03:29:25;;;;;;;4.47;3.60;;;;;;;;;;5057540;28;20559;-83
2022/07/03 03:31:50;;;;;;;3.88;3.45;;;;;;;16.56;91.86;68609.09;5057708;28;20036;-81
2022/07/03 03:34:17;;;;;;;4.22;3.70;;;;;;;16.53;92.22;68610.47;5070648;28;20570;-83
2022/07/03 03:36:42;;;;;;;6.15;3.95;;;;;;;16.40;91.78;68604.28;5067577;28;20128;-82
2022/07/03 03:39:08;;;;;;;5.10;4.00;;;;;;;16.30;92.81;68585.38;5064101;28;20064;-81
2022/07/03 03:41:33;;;;;;;8.00;4.60;;;;;;;16.24;93.69;68579.13;5071383;28;20067;-82
2022/07/03 03:43:59;;;;;;;5.72;4.63;;;;;;;;;;5071970;28;20097;-80
2022/07/03 03:46:24;;;;;;;7.75;4.75;;;;;;;16.26;92.40;68582.97;5071734;28;20067;-83
2022/07/03 03:48:49;;;;;;;5.80;4.82;;;;;;;16.24;92.36;68578.56;5072384;28;20089;-82
2022/07/03 03:51:15;;;;;;;5.97;5.22;;;;;;;16.18;92.89;68574.41;5072344;28;20048;-82
2022/07/03 03:53:40;;;;;;;7.22;5.30;;;;;;;;;;5072594;28;20040;-82
2022/07/03 03:56:08;;;;;;;5.80;5.20;;;;;;;16.22;93.14;68576.84;5071345;28;20072;-82
2022/07/03 03:58:35;;;;;;;5.28;4.78;;;;;;;;;;5067287;28;20123;-83
2022/07/03 04:01:02;;;;;;;6.30;5.70;;;;;;;16.13;92.27;68566.56;5065350;28;20115;-82
2022/07/03 04:03:27;;;;;;;6.45;5.72;;;;;;;;;;5069533;28;20037;-81
2022/07/03 04:05:53;;;;;;;6.90;6.20;;;;;;;;;;5070000;28;20059;-81
2022/07/03 04:08:19;;;;;;;8.32;7.32;;;;;;;;;;5068458;28;20036;-81
2022/07/03 04:10:45;;;;;;;10.82;8.65;;;;;;;15.77;94.37;68526.13;5063035;28;20044;-83
2022/07/03 04:13:10;;;;;;;9.52;7.78;;;;;;;15.89;92.29;68539.22;5054337;28;20664;-84
2022/07/03 04:15:35;;;;;;;9.48;7.85;;;;;;;15.99;91.02;68551.19;5061873;28;20131;-81
2022/07/03 04:18:01;;;;;;;9.18;7.78;;;;;;;16.06;89.46;68558.59;5060688;28;20115;-82
2022/07/03 04:20:26;;;;;;;11.20;8.07;;;;;;;16.14;88.22;68567.16;5076569;28;20044;-80
2022/07/03 04:22:52;;;;;;;9.60;7.53;;;;;;;16.20;87.15;68576.69;5069969;28;20045;-81
2022/07/03 04:25:17;;;;;;;10.95;7.57;;;;;;;;;;5068196;28;20037;-81
2022/07/03 04:27:43;;;;;;;11.57;7.53;;;;;;;16.26;86.42;68583.53;5071003;28;20544;-82
2022/07/03 04:30:10;;;;;;;8.85;7.05;;;;;;;16.33;85.80;68588.25;5067793;28;20044;-82
2022/07/03 04:32:36;;;;;;;9.73;7.53;;;;;;;16.39;84.87;68595.66;5057026;28;20044;-81
2022/07/03 04:35:02;;;;;;;8.73;7.70;;;;;;;;;;5053908;28;20033;-81
2022/07/03 04:37:27;;;;;;;8.00;7.00;;;;;;;;;;5068816;28;20040;-83
2022/07/03 04:39:53;;;;;;;8.15;7.18;;;;;;;16.46;84.16;68603.63;5058411;28;20044;-81
2022/07/03 04:42:18;;;;;;;8.15;7.10;;;;;;;16.57;83.91;68615.03;5061906;28;20413;-82
2022/07/03 04:44:43;;;;;;;7.75;6.93;;;;;;;16.60;83.49;68618.44;5068711;28;20090;-80
2022/07/03 04:47:09;;;;;;;7.65;6.82;;;;;;;16.65;83.43;68626.84;5063388;28;20433;-83
2022/07/03 04:49:34;;;;;;;9.30;7.25;;;;;;;;;;5050520;28;20041;-80
2022/07/03 04:51:59;;;;;;;11.63;7.15;;;;;;;16.76;82.82;68636.72;5060292;28;20053;-83
2022/07/03 04:54:25;;;;;;;7.82;7.00;;;;;;;;;;5069720;28;20060;-81
2022/07/03 04:56:50;;;;;;;8.30;7.43;;;;;;;16.94;82.43;68656.69;5054997;28;20041;-82
2022/07/03 04:59:15;;;;;;;10.05;8.00;;;;;;;17.01;82.77;68658.72;5062181;28;20040;-81
2022/07/03 05:01:41;;;;;;;8.50;6.68;;;;;;;17.00;81.90;68657.56;5045728;28;20071;-81
2022/07/03 05:04:06;;;;;;;8.15;6.95;;;;;;;17.01;82.28;68664.09;5064826;28;20060;-81
2022/07/03 05:06:32;;;;;;;8.20;7.32;;;;;;;17.05;81.98;68663.84;5073994;28;20037;-80
2022/07/03 05:08:57;;;;;;;8.20;6.88;;;;;;;17.18;82.08;68674.84;5049728;28;20047;-82
2022/07/03 05:11:22;;;;;;;8.93;7.30;;;;;;;17.21;82.04;68681.53;5062255;28;20615;-80
2022/07/03 05:13:47;;;;;;;7.78;6.97;;;;;;;;;;5065003;28;20039;-82
2022/07/03 05:16:13;;;;;;;9.80;7.25;;;;;;;17.32;81.13;68693.50;5074025;28;20044;-81
2022/07/03 05:18:38;;;;;;;9.18;6.55;;;;;;;;;;5067400;28;20094;-84
2022/07/03 05:21:03;;;;;;;9.45;6.72;;;;;;;;;;5075748;28;20066;-81
2022/07/03 05:23:29;;;;;;;10.88;6.88;;;;;;;17.71;79.57;68736.88;5065719;28;20040;-85
2022/07/03 05:25:55;;;;;;;9.85;6.90;;;;;;;17.80;78.71;68753.09;5066125;28;20102;-82
2022/07/03 05:28:21;;;;;;;8.10;7.05;;;;;;;17.73;79.03;68744.53;5068501;28;20321;-82
2022/07/03 05:30:46;;;;;;;7.82;6.45;;;;;;;17.67;79.61;68738.25;5063485;28;20127;-80
2022/07/03 05:33:11;;;;;;;7.78;5.75;;;;;;;17.78;78.35;68756.22;5069740;28;20049;-80
2022/07/03 05:35:37;;;;;;;8.52;6.32;;;;;;;17.97;78.76;68766.56;5068083;28;20047;-80
2022/07/03 05:38:02;;;;;;;8.13;6.07;;;;;;;17.98;77.36;68773.09;5060487;28;20046;-81
2022/07/03 05:40:27;;;;;;;6.43;5.70;;;;;;;18.07;78.00;68782.81;5054787;28;20076;-81
2022/07/03 05:42:53;;;;;;;6.35;5.45;;;;;;;;;;5052320;28;20079;-81
2022/07/03 05:45:19;;;;;;;7.38;6.20;;;;;;;18.19;76.29;68796.50;5057976;28;20501;-83
2022/07/03 05:47:44;;;;;;;7.47;5.25;;;;;;;18.19;76.12;68796.50;5064772;28;20135;-83
2022/07/03 05:50:10;;;;;;;10.25;4.85;;;;;;;;;;5035838;28;20556;-80
2022/07/03 05:52:35;;;;;;;7.55;4.90;;;;;;;;;;5058742;28;20036;-81
2022/07/03 05:55:00;;;;;;;7.07;5.40;;;;;;;;;;5066361;28;20501;-81
2022/07/03 05:57:26;;;;;;;5.70;5.10;;;;;;;18.55;74.84;68836.44;5060651;28;20367;-82
2022/07/03 05:59:51;;;;;;;6.15;5.13;;;;;;;18.57;73.03;68838.75;5065776;28;20460;-80
2022/07/03 06:02:17;;;;;;;6.35;5.00;;;;;;;;;;5068766;28;20041;-80
2022/07/03 06:04:42;;;;;;;5.97;4.25;;;;;;;;;;5051001;28;20049;-83
2022/07/03 06:07:08;;;;;;;7.93;4.25;;;;;;;18.70;72.89;68853.00;5061469;28;20512;-82
2022/07/03 06:09:33;;;;;;;6.32;4.10;;;;;;;18.79;71.58;68862.72;5050887;28;20095;-83
2022/07/03 06:11:58;;;;;;;6.05;3.95;;;;;;;18.84;71.55;68863.63;5059646;28;20069;-84
2022/07/03 06:14:24;;;;;;;4.93;3.92;;;;;;;;;;5066174;28;20440;-81
2022/07/03 06:16:49;;;;;;;5.90;3.63;;;;;;;18.95;70.08;68883.72;5069239;28;20053;-81
2022/07/03 06:19:15;;;;;;;4.57;3.30;;;;;;;19.07;70.26;68886.63;5045592;28;20769;-83
2022/07/03 06:21:40;;;;;;;6.88;3.80;;;;;;;19.19;70.33;68907.88;5043321;28;20056;-82
2022/07/03 06:24:06;;;;;;;5.20;3.53;;;;;;;19.24;69.65;68913.00;5064707;28;20644;-82
2022/07/03 06:26:31;;;;;;;5.20;3.35;;;;;;;;;;5073646;28;20118;-82
2022/07/03 06:28:57;;;;;;;6.88;3.05;;;;;;;19.31;69.24;68921.03;5073654;28;20060;-83
2022/07/03 06:31:22;;;;;;;4.95;3.30;;;;;;;19.34;68.52;68924.44;5072541;28;20111;-83
2022/07/03 06:33:47;;;;;;;5.85;3.10;;;;;;;19.36;68.24;68921.31;5069068;28;20048;-82
2022/07/03 06:36:13;;;;;;;7.65;3.10;;;;;;;19.47;67.21;68933.88;5093199;28;20051;-82
2022/07/03 06:38:38;;;;;;;7.50;2.83;;;;;;;19.51;66.55;68938.47;5081437;28;20606;-82
2022/07/03 06:41:03;;;;;;;3.22;2.33;;;;;;;;;;5064131;28;20041;-83
2022/07/03 06:43:29;;;;;;;5.78;2.75;;;;;;;;;;5067469;28;20131;-83
2022/07/03 06:45:54;;;;;;;5.15;3.08;;;;;;;19.75;65.88;68962.06;5073319;28;20104;-81
2022/07/03 06:48:20;;;;;;;4.35;2.85;;;;;;;19.77;65.24;68973.03;5074059;28;20052;-82
2022/07/03 06:50:46;;;;;;;7.00;2.53;;;;;;;19.83;64.32;68979.31;5073571;28;20037;-84
2022/07/03 06:53:11;;;;;;;6.30;2.10;;;;;;;;;;5073914;28;20037;-85
2022/07/03 06:55:37;;;;;;;5.38;2.40;;;;;;;19.91;64.52;68988.47;5073923;28;20041;-80
2022/07/03 06:58:02;;;;;;;6.03;2.42;;;;;;;;;;5067755;28;20146;-83
2022/07/03 07:00:27;;;;;;;4.13;2.40;;;;;;;20.02;64.31;69003.75;5073039;28;20804;-83
2022/07/03 07:02:53;;;;;;;4.93;2.45;;;;;;;;;;5078814;28;20270;-82
2022/07/03 07:05:18;;;;;;;4.18;2.83;;;;;;;20.11;63.81;69010.16;5077923;28;20040;-83
2022/07/03 07:07:43;;;;;;;5.38;2.70;;;;;;;;;;5067910;28;20127;-83
2022/07/03 07:10:09;;;;;;;5.07;2.90;;;;;;;20.27;65.45;69029.03;5069959;28;20051;-82
2022/07/03 07:12:35;;;;;;;4.72;2.80;;;;;;;20.36;64.03;69038.75;5073952;28;20484;-82
2022/07/03 07:15:00;;;;;;;5.90;2.55;;;;;;;20.33;63.64;69029.34;5068374;28;20059;-84
2022/07/03 07:17:25;;;;;;;5.30;2.95;;;;;;;;;;5075700;28;20056;-82
2022/07/03 07:19:50;;;;;;;6.50;2.70;;;;;;;;;;5070878;28;20048;-83
2022/07/03 07:22:16;;;;;;;4.30;2.80;;;;;;;20.40;64.25;69035.22;5068723;28;20282;-82
2022/07/03 07:24:41;;;;;;;6.32;2.58;;;;;;;20.49;65.03;69045.53;5067050;28;20279;-82
2022/07/03 07:27:07;;;;;;;7.25;2.97;;;;;;;20.57;65.64;69054.13;5067180;28;20045;-85
2022/07/03 07:29:32;;;;;;;4.82;2.38;;;;;;;20.55;63.46;69059.38;5075521;28;20037;-83
2022/07/03 07:31:57;;;;;;;3.97;2.25;;;;;;;20.76;62.75;69083.38;5075292;28;20033;-84
2022/07/03 07:34:23;;;;;;;5.22;2.20;;;;;;;20.84;60.88;69084.44;5053684;28;20037;-85
2022/07/03 07:36:48;;;;;;;5.60;2.38;;;;;;;20.88;61.87;69099.25;5074279;28;20040;-83
2022/07/03 07:39:13;;;;;;;4.45;1.92;;;;;;;20.92;60.91;69101.13;5075265;28;20041;-84
2022/07/03 07:41:39;;;;;;;5.85;2.40;;;;;;;;;;5055029;28;20041;-84
2022/07/03 07:44:04;;;;;;;4.10;2.00;;;;;;;20.85;60.53;69087.69;5057649;28;20062;-84
2022/07/03 07:46:30;;;;;;;5.70;1.98;;;;;;;;;;5074784;28;20039;-84
2022/07/03 07:48:55;;;;;;;3.97;1.80;;;;;;;;;;5073339;28;20040;-86
2022/07/03 07:51:21;;;;;;;6.87;2.17;;;;;;;21.20;59.14;69127.16;5076520;28;20045;-84
2022/07/03 07:53:46;;;;;;;3.42;1.80;;;;;;;;;;5073552;28;20275;-83
2022/07/03 07:56:11;;;;;;;4.20;1.90;;;;;;;;;;5072591;28;20067;-84
2022/07/03 07:58:37;;;;;;;5.28;2.20;;;;;;;21.30;58.85;69143.47;5056607;28;20040;-82
2022/07/03 08:06:30;;;;;;;3.92;1.88;;;;;;;;;;5057990;28;20052;-84
2022/07/03 08:08:55;;;;;;;3.97;2.42;;;;;;;21.50;57.44;69160.38;5081956;28;20057;-84
2022/07/03 08:11:21;;;;;;;4.93;2.03;;;;;;;21.54;58.63;69162.25;5074756;28;20109;-82
2022/07/03 08:13:46;;;;;;;5.32;1.92;;;;;;;21.43;57.84;69152.34;5070785;28;20260;-83
2022/07/03 08:16:12;;;;;;;5.82;2.05;;;;;;;;;;5071425;28;20045;-82
2022/07/03 08:18:37;;;;;;;4.50;1.98;;;;;;;21.63;56.77;69175.81;5057442;28;20055;-82
2022/07/03 08:21:03;;;;;;;5.72;1.92;;;;;;;21.63;58.38;69175.81;5075123;28;20447;-84
2022/07/03 08:23:28;;;;;;;6.15;2.53;;;;;;;;;;5072820;28;20546;-83
2022/07/03 08:25:53;;;;;;;5.43;2.50;;;;;;;;;;5070685;28;20047;-83
2022/07/03 08:28:19;;;;;;;3.87;2.00;;;;;;;21.81;57.00;69195.84;5048659;28;21019;-84
2022/07/03 08:30:44;;;;;;;4.35;2.50;;;;;;;;;;5067463;28;20308;-79
2022/07/03 08:33:10;;;;;;;2.97;1.92;;;;;;;;;;5070100;28;20101;-83
2022/07/03 08:35:35;;;;;;;4.63;1.90;;;;;;;;;;5066766;28;20040;-82
2022/07/03 08:38:00;;;;;;;4.97;2.00;;;;;;;22.26;56.25;69246.25;5071863;28;20286;-82
2022/07/03 08:42:57;;;;;;;3.22;1.70;;;;;;;22.28;56.96;69248.53;4996942;28;20406;-79
2022/07/03 08:45:23;;;;;;;3.67;1.85;;;;;;;22.40;56.54;69261.69;5013740;28;20041;-78
2022/07/03 08:47:50;;;;;;;5.03;1.98;;;;;;;22.60;54.81;69280.75;5008405;28;20038;-78
2022/07/03 08:50:18;;;;;;;3.40;1.98;;;;;;;22.65;53.40;69289.75;5009402;28;20049;-79
2022/07/03 08:52:45;;;;;;;3.43;1.63;;;;;;;22.68;55.33;69292.63;5003771;28;20036;-77
2022/07/03 08:55:11;;;;;;;4.63;1.80;;;;;;;;;;4999802;28;20046;-77
2022/07/03 08:57:37;;;;;;;6.63;1.95;;;;;;;;;;5006762;28;20042;-77
2022/07/03 09:00:08;;;;;;;3.00;1.60;;;;;;;22.64;54.10;69283.19;4995256;28;20113;-77
2022/07/03 09:02:34;;;;;;;2.90;1.42;;;;;;;22.59;53.17;69280.19;5004334;28;20517;-77
2022/07/03 09:05:01;;;;;;;3.30;1.80;;;;;;;;;;5011468;28;20049;-77
2022/07/03 09:07:31;;;;;;;3.10;1.70;;;;;;;22.66;54.96;69288.19;5002034;28;21037;-76
2022/07/03 09:09:56;;;;;;;5.80;2.00;;;;;;;22.73;53.66;69298.94;5000060;28;20086;-77
2022/07/03 09:12:22;;;;;;;6.03;2.20;;;;;;;;;;5005863;28;20124;-76
2022/07/03 09:14:47;;;;;;;3.95;1.92;;;;;;;22.60;55.56;69281.31;5004556;28;20587;-77
2022/07/03 09:17:13;;;;;;;4.60;1.70;;;;;;;22.80;56.59;69311.22;4995621;28;20061;-77
2022/07/03 09:19:44;;;;;;;4.88;1.92;;;;;;;22.92;55.22;69319.53;4999919;28;20054;-76
2022/07/03 09:22:24;;;;;;;4.38;1.88;;;;;;;;;;5000278;28;20436;-76
2022/07/03 09:25:15;;;;;;;3.78;1.80;;;;;;;22.87;53.85;69319.81;5003648;28;20467;-77
2022/07/03 09:27:51;;;;;;;5.75;2.45;;;;;;;22.82;54.90;69313.53;4992030;28;20073;-77
2022/07/03 09:30:18;;;;;;;4.88;2.10;;;;;;;22.80;55.05;69306.38;5011666;28;20675;-76
2022/07/03 09:32:46;;;;;;;5.50;2.03;;;;;;;22.97;55.37;69325.88;5000869;28;20104;-76
2022/07/03 09:35:13;;;;;;;3.95;2.20;;;;;;;23.02;54.24;69331.03;5003510;28;20038;-77
2022/07/03 09:37:40;;;;;;;7.63;2.78;;;;;;;22.98;54.83;69332.44;5019666;28;20138;-77
2022/07/03 09:40:07;;;;;;;3.95;1.90;;;;;;;22.93;54.25;69317.97;4996235;28;20046;-77
2022/07/03 09:42:32;;;;;;;5.80;2.20;;;;;;;23.02;53.94;69330.44;5044085;28;20183;-77
2022/07/03 09:44:57;;;;;;;5.60;2.20;;;;;;;23.07;53.90;69331.31;5040870;28;20135;-77
2022/07/03 09:47:23;;;;;;;7.88;2.05;;;;;;;;;;5045685;28;20567;-77
2022/07/03 09:49:54;;;;;;;4.07;2.20;;;;;;;23.26;55.24;69354.66;5050050;28;20048;-78
2022/07/03 09:52:28;;;;;;;4.18;2.58;;;;;;;23.09;55.69;69339.03;5045962;28;20060;-78
2022/07/03 09:54:54;;;;;;;4.45;2.70;;;;;;;;;;5046612;28;20540;-78
2022/07/03 09:57:20;;;;;;;7.05;2.50;;;;;;;23.16;57.00;69341.03;5039674;28;20044;-78
2022/07/03 09:59:45;;;;;;;6.13;2.30;;;;;;;23.23;55.80;69354.50;5048152;28;20069;-77
2022/07/03 10:02:10;;;;;;;5.50;2.28;;;;;;;23.42;56.32;69375.72;5043034;28;20056;-77
2022/07/03 10:04:36;;;;;;;4.70;2.25;;;;;;;;;;5049099;28;20037;-77
2022/07/03 10:07:03;;;;;;;5.50;2.30;;;;;;;23.21;53.77;69346.78;5052419;28;20056;-78
2022/07/03 10:09:34;;;;;;;4.95;1.83;;;;;;;23.01;54.83;69324.44;5047024;28;20134;-77
2022/07/03 10:12:02;;;;;;;5.68;2.15;;;;;;;23.02;55.55;69331.03;5055549;28;20137;-79
2022/07/03 10:14:31;;;;;;;5.47;2.00;;;;;;;;;;5048944;28;20072;-80
2022/07/03 10:16:58;;;;;;;;;;;;;;;23.12;54.50;69339.75;5047586;28;20050;-78
2022/07/03 10:19:27;;;;;;;3.63;1.67;;;;;;;23.11;56.91;69335.91;5042699;28;19917;-79
2022/07/03 10:21:54;;;;;;;3.83;2.00;;;;;;;;;;5049631;28;20091;-79
2022/07/03 10:24:27;;;;;;;3.58;2.10;;;;;;;23.27;55.39;69359.06;5036570;28;20041;-79
2022/07/03 10:26:53;;;;;;;5.28;2.03;;;;;;;23.40;54.33;69367.97;5045644;28;20044;-79
2022/07/03 10:29:24;;;;;;;6.07;1.85;;;;;;;23.35;53.89;69373.69;5040510;28;20290;-79
2022/07/03 10:31:50;;;;;;;3.78;2.25;;;;;;;;;;5048048;28;20052;-79
2022/07/03 10:34:18;;;;;;;4.18;1.85;;;;;;;23.09;55.10;69338.47;5048006;28;20045;-79
2022/07/03 10:36:44;;;;;;;5.18;1.45;;;;;;;23.14;55.71;69344.75;5046304;28;20033;-78
2022/07/03 10:39:18;;;;;;;2.90;1.70;;;;;;;23.30;55.29;69362.50;5056742;28;20044;-79
2022/07/03 10:45:15;;;;;;;7.07;2.13;;;;;;;23.08;55.33;69337.91;4966465;28;20079;-79
2022/07/03 10:47:43;;;;;;;4.50;2.10;;;;;;;23.09;55.60;69338.47;4994913;28;20053;-77
2022/07/03 10:50:13;;;;;;;4.23;2.00;;;;;;;23.06;56.33;69335.59;5026293;28;20037;-79
2022/07/03 10:52:40;;;;;;;4.05;2.13;;;;;;;23.30;55.54;69362.50;5042969;28;20056;-78
2022/07/03 10:55:08;;;;;;;6.35;2.25;;;;;;;23.24;54.97;69355.66;5045146;28;20059;-79
2022/07/03 10:57:35;;;;;;;6.95;2.30;;;;;;;23.19;55.14;69350.50;5041678;28;20041;-77
2022/07/03 11:00:02;;;;;;;3.55;2.15;;;;;;;23.11;56.33;69340.75;5038015;28;20045;-78
2022/07/03 11:02:28;;;;;;;5.95;1.92;;;;;;;;;;5048726;28;20128;-77
2022/07/03 11:04:57;;;;;;;4.30;1.83;;;;;;;23.49;54.78;69389.16;5042904;28;20136;-79
2022/07/03 11:07:23;;;;;;;7.22;2.45;;;;;;;23.69;53.91;69403.34;5042939;28;20060;-79
2022/07/03 11:10:10;;;;;;;6.43;2.47;;;;;;;23.64;52.94;69400.91;5044563;28;20051;-77
2022/07/03 11:13:00;;;;;;;5.80;2.10;;;;;;;23.35;53.32;69364.97;5014559;28;20041;-77
2022/07/03 11:15:47;;;;;;;4.60;2.40;;;;;;;23.43;54.40;69377.41;5048318;28;20079;-77
2022/07/03 11:18:28;;;;;;;6.22;2.03;;;;;;;23.51;54.16;69386.03;5046899;28;20045;-78
2022/07/03 11:20:54;;;;;;;3.75;1.48;;;;;;;23.51;53.71;69386.03;5042117;28;20051;-78
2022/07/03 11:23:30;;;;;;;4.53;1.35;;;;;;;23.73;52.52;69407.94;5046220;28;20480;-77
2022/07/03 11:26:01;;;;;;;3.28;1.70;;;;;;;23.52;53.82;69387.16;5048355;28;20128;-78
2022/07/03 11:28:32;;;;;;;3.45;1.58;;;;;;;23.47;53.60;69381.44;5047755;28;20049;-77
2022/07/03 11:31:16;;;;;;;4.18;1.35;;;;;;;;;;5043527;28;20041;-77
2022/07/03 11:33:50;;;;;;;4.47;1.58;;;;;;;23.45;52.93;69376.44;5018462;28;20117;-78
2022/07/03 11:36:15;;;;;;;3.95;1.63;;;;;;;23.42;52.70;69373.56;5042690;28;20135;-79
2022/07/03 11:38:42;;;;;;;2.75;1.20;;;;;;;23.43;52.87;69374.69;5046398;28;20103;-79
2022/07/03 11:41:10;;;;;;;3.08;1.10;;;;;;;23.30;52.19;69362.50;5045632;28;20112;-77
2022/07/03 11:43:36;;;;;;;2.83;1.03;;;;;;;23.23;52.25;69351.78;5049124;28;20613;-77
2022/07/03 11:46:05;;;;;;;5.82;1.20;;;;;;;23.32;52.70;69364.81;5045998;28;20268;-77
2022/07/03 11:48:31;;;;;;;6.45;1.17;;;;;;;;;;5040912;28;20049;-78
2022/07/03 11:51:02;;;;;;;1.63;0.63;;;;;;;23.42;49.63;69376.28;5040313;28;20052;-77
2022/07/03 11:53:33;;;;;;;2.20;1.08;;;;;;;23.59;48.78;69392.47;5038619;28;20056;-78
2022/07/03 11:55:59;;;;;;;2.15;0.80;;;;;;;23.54;48.38;69386.75;5043254;28;20076;-77
2022/07/03 11:58:38;;;;;;;2.33;0.93;;;;;;;23.72;48.37;69409.53;5048111;28;20112;-78
2022/07/03 12:01:04;;;;;;;2.53;0.80;;;;;;;;;;5049026;28;20120;-79
2022/07/03 12:03:29;;;;;;;3.83;0.90;;;;;;;23.78;47.92;69415.84;5046160;28;20124;-78
2022/07/03 12:05:58;;;;;;;2.25;0.85;;;;;;;23.84;47.53;69420.56;5044840;28;20116;-78
2022/07/03 12:08:27;;;;;;;2.58;0.80;;;;;;;23.89;46.42;69428.44;5045896;28;20045;-77
2022/07/03 12:10:56;;;;;;;4.43;0.90;;;;;;;;;;5041449;28;20060;-77
2022/07/03 12:13:23;;;;;;;2.33;0.60;;;;;;;23.74;47.17;69409.13;5037236;28;20049;-78
2022/07/03 12:15:49;;;;;;;2.22;0.70;;;;;;;24.13;47.01;69452.66;5040366;28;20037;-77
2022/07/03 12:18:15;;;;;;;1.45;0.70;;;;;;;24.08;46.16;69450.22;5044765;28;20485;-78
2022/07/03 12:20:41;;;;;;;2.20;0.85;;;;;;;23.91;46.67;69427.44;5042254;28;20057;-78
2022/07/03 12:23:07;;;;;;;1.25;0.60;;;;;;;23.88;46.80;69427.31;5046831;28;20033;-78
2022/07/03 12:25:38;;;;;;;2.38;0.70;;;;;;;23.97;48.42;69434.91;5049434;28;20086;-77
2022/07/03 12:28:04;;;;;;;2.35;0.77;;;;;;;24.00;45.58;69437.78;5046316;28;20497;-78
2022/07/03 12:30:30;;;;;;;2.22;0.75;;;;;;;24.29;46.47;69473.16;5045428;28;20129;-77
2022/07/03 12:32:56;;;;;;;1.92;0.85;;;;;;;24.47;44.50;69490.53;5046225;28;20037;-78
2022/07/03 12:35:23;;;;;;;2.70;0.80;;;;;;;24.30;45.35;69474.31;5049772;28;20060;-78